Time;durP1;ratioP1;P1;durP2;ratioP2;P2;SDS_P1;SDS_P2;PMS_P1;PMS_P2;Temp;Humidity;BMP_temperature;BMP_pressure;BME280_temperature;BME280_humidity;BME280_pressure;Samples;Min_cycle;Max_cycle;Signal;HPM_P1;HPM_P2
2022/04/06 00:01:05;;;;;;;8.53;3.77;;;11.80;99.50;;;;;;4908940;29;20456;-89
2022/04/06 00:03:34;;;;;;;3.47;2.80;;;11.90;99.40;;;;;;4903327;29;20475;-87
2022/04/06 00:06:01;;;;;;;9.17;4.00;;;11.80;99.30;;;;;;4899804;29;20521;-88
2022/04/06 00:08:36;;;;;;;5.50;3.30;;;11.90;99.30;;;;;;4897453;29;20528;-87
2022/04/06 00:11:10;;;;;;;5.37;3.50;;;11.80;99.30;;;;;;4901065;29;22322;-88
2022/04/06 00:13:36;;;;;;;6.83;3.53;;;12.00;99.00;;;;;;4898332;29;20475;-88
2022/04/06 00:16:03;;;;;;;7.40;2.83;;;12.10;98.50;;;;;;4899816;29;20472;-86
2022/04/06 00:18:33;;;;;;;4.90;3.17;;;12.20;97.70;;;;;;4894813;29;20879;-87
2022/04/06 00:21:12;;;;;;;5.00;3.20;;;12.30;97.80;;;;;;4893884;29;20750;-86
2022/04/06 00:24:23;;;;;;;8.47;3.60;;;12.20;97.90;;;;;;4913057;29;20526;-88
2022/04/06 00:26:54;;;;;;;6.00;3.27;;;12.20;98.10;;;;;;4909975;29;20982;-86
2022/04/06 00:29:22;;;;;;;8.10;3.00;;;12.20;97.40;;;;;;4891000;29;20554;-87
2022/04/06 00:31:56;;;;;;;4.13;3.03;;;12.00;98.00;;;;;;4899840;29;20534;-87
2022/04/06 00:37:20;;;;;;;3.77;2.27;;;11.80;98.80;;;;;;4897901;29;20483;-85
2022/04/06 00:39:50;;;;;;;8.70;2.63;;;12.30;98.00;;;;;;4897986;29;20485;-88
2022/04/06 00:42:18;;;;;;;5.43;2.77;;;12.40;97.40;;;;;;4912431;29;21006;-87
2022/04/06 00:44:45;;;;;;;6.07;3.43;;;12.30;97.20;;;;;;4910511;29;20997;-88
2022/04/06 00:47:25;;;;;;;3.90;2.67;;;11.90;97.90;;;;;;4913011;29;20491;-88
2022/04/06 00:49:54;;;;;;;6.50;2.70;;;11.90;98.40;;;;;;4916233;29;20462;-87
2022/04/06 00:52:37;;;;;;;7.07;3.10;;;12.10;97.80;;;;;;4901381;29;20468;-87
2022/04/06 00:55:13;;;;;;;4.83;2.43;;;11.90;98.00;;;;;;4896730;29;20571;-86
2022/04/06 00:57:43;;;;;;;5.40;2.80;;;11.80;98.30;;;;;;4908047;29;21794;-88
2022/04/06 01:00:19;;;;;;;4.50;2.20;;;12.00;97.90;;;;;;4902960;29;20534;-87
2022/04/06 01:02:52;;;;;;;3.00;1.93;;;11.90;98.00;;;;;;4900972;29;20554;-86
2022/04/06 01:05:19;;;;;;;4.30;2.50;;;12.10;97.50;;;;;;4901445;29;20472;-86
2022/04/06 01:08:11;;;;;;;7.60;3.03;;;11.90;97.70;;;;;;4913336;29;20478;-87
2022/04/06 01:10:43;;;;;;;4.00;2.50;;;11.90;98.00;;;;;;4900748;29;20455;-85
2022/04/06 01:13:13;;;;;;;3.70;3.10;;;11.80;98.00;;;;;;4893381;29;20560;-88
2022/04/06 01:16:00;;;;;;;4.37;2.70;;;12.10;97.40;;;;;;4893523;29;20464;-87
2022/04/06 01:18:46;;;;;;;4.80;2.33;;;11.80;97.60;;;;;;4900310;29;20822;-86
2022/04/06 01:21:29;;;;;;;5.37;2.73;;;11.90;97.90;;;;;;4907613;29;20958;-86
2022/04/06 01:24:04;;;;;;;4.87;2.97;;;11.90;97.70;;;;;;4899079;29;20455;-85
2022/04/06 01:26:34;;;;;;;3.83;2.20;;;11.90;98.10;;;;;;4892748;29;20495;-87
2022/04/06 01:29:01;;;;;;;7.27;2.50;;;12.20;97.50;;;;;;4898828;29;20519;-85
2022/04/06 01:31:28;;;;;;;7.00;2.30;;;12.20;97.00;;;;;;4893246;29;20455;-85
2022/04/06 01:33:55;;;;;;;4.27;2.37;;;12.30;97.10;;;;;;4904319;29;20488;-86
2022/04/06 01:36:26;;;;;;;4.33;2.70;;;12.20;96.90;;;;;;4895827;29;20566;-86
2022/04/06 01:39:04;;;;;;;4.80;2.57;;;12.10;96.90;;;;;;4900143;29;20455;-85
2022/04/06 01:41:38;;;;;;;4.23;2.23;;;12.10;97.10;;;;;;4907247;29;20469;-86
2022/04/06 01:44:14;;;;;;;4.10;2.30;;;12.20;97.00;;;;;;4908736;29;20464;-86
2022/04/06 01:46:41;;;;;;;3.33;2.33;;;12.20;97.20;;;;;;4895222;29;20497;-86
2022/04/06 01:52:12;;;;;;;3.10;2.70;;;12.10;97.30;;;;;;4893890;29;21756;-86
2022/04/06 01:54:51;;;;;;;6.40;2.37;;;11.90;97.70;;;;;;4895409;29;20499;-84
2022/04/06 01:57:25;;;;;;;3.77;2.50;;;11.80;98.20;;;;;;4893649;29;20547;-86
2022/04/06 02:00:05;;;;;;;4.33;2.50;;;11.80;98.60;;;;;;4912891;29;20455;-86
2022/04/06 02:02:51;;;;;;;7.53;3.60;;;11.80;98.20;;;;;;4897767;29;20475;-87
2022/04/06 02:05:19;;;;;;;4.13;2.00;;;11.60;98.60;;;;;;4898400;29;20491;-85
2022/04/06 02:07:50;;;;;;;3.83;2.70;;;11.70;98.90;;;;;;4897129;29;20491;-87
2022/04/06 02:10:17;;;;;;;4.20;2.60;;;12.10;97.90;;;;;;4890379;29;20542;-86
2022/04/06 02:12:44;;;;;;;3.77;1.90;;;12.00;97.60;;;;;;4901794;29;20820;-86
2022/04/06 02:15:14;;;;;;;2.80;2.00;;;11.90;97.90;;;;;;4908451;29;20491;-87
2022/04/06 02:17:42;;;;;;;6.50;3.10;;;11.80;97.80;;;;;;4891750;29;20512;-88
2022/04/06 02:20:10;;;;;;;4.47;2.57;;;11.80;98.00;;;;;;4909720;29;20464;-86
2022/04/06 02:22:39;;;;;;;2.33;1.90;;;11.80;98.10;;;;;;4893235;29;20470;-87
2022/04/06 02:25:06;;;;;;;5.23;2.60;;;11.70;98.30;;;;;;4900865;29;20490;-87
2022/04/06 02:27:53;;;;;;;3.60;2.43;;;11.60;98.80;;;;;;4912706;29;20880;-85
2022/04/06 02:30:25;;;;;;;5.70;2.37;;;11.50;99.10;;;;;;4901439;29;20910;-86
2022/04/06 02:32:56;;;;;;;6.93;2.73;;;12.00;98.20;;;;;;4893122;29;20459;-85
2022/04/06 02:35:30;;;;;;;3.70;2.13;;;11.90;98.00;;;;;;4896891;29;20462;-87
2022/04/06 02:37:57;;;;;;;3.53;2.63;;;11.70;98.30;;;;;;4896921;29;20575;-82
2022/04/06 02:40:26;;;;;;;4.67;2.23;;;11.80;98.30;;;;;;4915523;29;20471;-84
2022/04/06 02:42:53;;;;;;;3.20;2.50;;;11.80;98.20;;;;;;4899138;29;20558;-86
2022/04/06 02:45:20;;;;;;;4.47;2.87;;;11.90;98.40;;;;;;4899748;29;20484;-84
2022/04/06 02:47:49;;;;;;;3.27;2.30;;;11.90;97.90;;;;;;4908407;29;20491;-85
2022/04/06 02:50:30;;;;;;;3.23;2.20;;;11.80;98.50;;;;;;4921682;28;20487;-86
2022/04/06 02:53:04;;;;;;;3.13;2.83;;;11.90;98.40;;;;;;4897838;29;20833;-86
2022/04/06 02:55:32;;;;;;;5.33;2.53;;;12.40;97.90;;;;;;4915558;29;21106;-86
2022/04/06 02:57:59;;;;;;;4.60;2.20;;;11.70;98.10;;;;;;4895403;29;20489;-84
2022/04/06 03:00:32;;;;;;;5.40;2.33;;;11.80;98.70;;;;;;4892095;29;20536;-85
2022/04/06 03:03:22;;;;;;;4.20;2.50;;;11.90;98.50;;;;;;4908159;29;20448;-86
2022/04/06 03:06:40;;;;;;;6.13;2.90;;;12.00;98.20;;;;;;4847424;23;20604;-85
2022/04/06 03:10:10;;;;;;;4.67;3.30;;;11.70;98.50;;;;;;4917201;29;20455;-87
2022/04/06 03:13:09;;;;;;;3.10;2.03;;;11.80;98.50;;;;;;4870270;29;20473;-87
2022/04/06 03:18:59;;;;;;;6.63;2.40;;;11.50;99.10;;;;;;4899296;29;20487;-88
2022/04/06 03:25:28;;;;;;;5.27;2.47;;;11.60;98.90;;;;;;4848305;29;20551;-87
2022/04/06 03:32:37;;;;;;;8.93;3.23;;;11.50;99.40;;;;;;4839042;29;20551;-86
2022/04/06 03:35:34;;;;;;;6.83;2.67;;;11.40;99.60;;;;;;4827292;29;20874;-86
2022/04/06 04:01:08;;;;;;;7.60;2.43;;;11.30;99.50;;;;;;4910801;29;20462;-84
2022/04/06 04:11:51;;;;;;;5.50;3.23;;;11.30;98.90;;;;;;4899830;29;20477;-86
2022/04/06 04:15:31;;;;;;;8.70;2.87;;;11.40;98.60;;;;;;4886069;29;20477;-87
2022/04/06 04:18:52;;;;;;;4.93;2.00;;;11.30;98.70;;;;;;5148088;23;20533;-87
2022/04/06 04:22:10;;;;;;;2.90;2.40;;;11.30;98.80;;;;;;4918304;29;20466;-88
2022/04/06 04:29:37;;;;;;;4.87;2.37;;;11.60;98.10;;;;;;4911440;29;20561;-85
2022/04/06 04:43:26;;;;;;;4.83;2.53;;;11.80;96.80;;;;;;4815351;29;20467;-86
2022/04/06 04:54:05;;;;;;;5.50;2.80;;;11.70;96.60;;;;;;4909631;29;20471;-86
2022/04/06 05:01:19;;;;;;;4.80;2.90;;;11.40;97.60;;;;;;4911652;29;20525;-86
2022/04/06 05:21:53;;;;;;;6.17;2.60;;;11.40;97.30;;;;;;4905058;29;20492;-86
2022/04/06 05:33:02;;;;;;;7.03;3.00;;;11.30;98.10;;;;;;4837864;29;20466;-85
2022/04/06 05:42:28;;;;;;;3.90;2.40;;;11.60;96.80;;;;;;5808175;23;21663;-86
2022/04/06 06:00:09;;;;;;;2.53;1.90;;;11.50;96.20;;;;;;4913209;29;20510;-87
2022/04/06 06:07:43;;;;;;;3.93;2.27;;;11.60;95.90;;;;;;4853930;29;20482;-85
2022/04/06 06:11:41;;;;;;;;;;;;;;;;;;;;;
2022/04/06 06:14:52;;;;;;;6.53;2.27;;;11.50;96.00;;;;;;4849087;29;20498;-86
2022/04/06 10:05:29;;;;;;;;;;;;;;;;;;;;;
2022/04/06 10:25:13;;;;;;;;;;;;;;;;;;;;;
2022/04/06 14:18:59;;;;;;;2.53;1.40;;;13.70;88.80;;;;;;4915320;29;20510;-84
2022/04/06 15:38:06;;;;;;;2.80;2.10;;;13.90;90.20;;;;;;1483650;26;20498;-84
2022/04/06 15:40:45;;;;;;;3.10;1.87;;;13.90;90.20;;;;;;4986049;28;20459;-84
2022/04/06 15:43:20;;;;;;;2.23;1.70;;;13.90;90.70;;;;;;4980297;28;20515;-85
2022/04/06 15:46:17;;;;;;;2.03;1.70;;;13.70;91.50;;;;;;4975039;28;20457;-87
2022/04/06 15:48:44;;;;;;;2.07;1.47;;;13.60;91.60;;;;;;4992060;28;20497;-85
2022/04/06 15:51:32;;;;;;;1.87;1.47;;;13.40;92.70;;;;;;4993545;28;20483;-86
2022/04/06 15:54:44;;;;;;;3.20;1.50;;;13.50;93.20;;;;;;4980882;28;20463;-87
2022/04/06 15:57:38;;;;;;;2.47;1.83;;;13.60;92.90;;;;;;4979658;28;20515;-84
2022/04/06 16:00:35;;;;;;;2.10;1.90;;;14.00;92.20;;;;;;4980012;28;20517;-86
2022/04/06 16:03:47;;;;;;;4.50;1.90;;;13.70;92.00;;;;;;4975817;28;20482;-87
2022/04/06 16:06:38;;;;;;;5.20;1.83;;;13.90;91.60;;;;;;4975806;28;20479;-87
2022/04/06 16:09:18;;;;;;;1.63;1.53;;;13.70;91.80;;;;;;4972522;28;20557;-86
2022/04/06 16:12:28;;;;;;;5.03;1.77;;;13.50;92.60;;;;;;4986481;28;20455;-86
2022/04/06 16:15:11;;;;;;;1.93;1.67;;;13.40;93.30;;;;;;4969818;28;20574;-84
2022/04/06 16:18:01;;;;;;;3.40;2.30;;;13.80;92.00;;;;;;4977771;28;20517;-87
2022/04/06 16:20:57;;;;;;;2.67;2.30;;;13.50;92.20;;;;;;4931679;28;20467;-85
2022/04/06 16:23:56;;;;;;;2.90;2.13;;;13.70;93.00;;;;;;4993078;28;21110;-86
2022/04/06 16:26:26;;;;;;;4.07;2.80;;;13.80;92.00;;;;;;4985654;28;20558;-85
2022/04/06 16:29:11;;;;;;;;;;;;;;;;;;;;;
2022/04/06 16:31:55;;;;;;;2.30;2.00;;;13.50;92.40;;;;;;4983748;28;20604;-85
2022/04/06 16:34:36;;;;;;;2.63;2.40;;;13.60;92.30;;;;;;4971257;28;20598;-87
2022/04/06 16:37:27;;;;;;;2.37;2.17;;;13.70;92.20;;;;;;4986921;28;20486;-87
2022/04/06 16:40:14;;;;;;;3.30;2.33;;;13.70;91.90;;;;;;4970901;28;20460;-85
2022/04/06 16:42:58;;;;;;;2.20;2.00;;;13.70;91.90;;;;;;4963625;28;20508;-85
2022/04/06 16:45:56;;;;;;;2.50;2.30;;;13.70;91.50;;;;;;4935021;28;20462;-85
2022/04/06 16:49:02;;;;;;;2.50;2.30;;;13.80;91.20;;;;;;4971405;28;20498;-84
2022/04/06 16:58:10;;;;;;;3.70;2.20;;;13.50;91.80;;;;;;4894934;29;20584;-85
2022/04/06 17:01:09;;;;;;;2.50;2.30;;;13.50;92.20;;;;;;4894869;29;20489;-83
2022/04/06 17:04:01;;;;;;;4.80;3.63;;;13.70;91.80;;;;;;4907666;28;20462;-84
2022/04/06 17:06:38;;;;;;;3.50;2.47;;;13.60;91.20;;;;;;4897149;29;20480;-83
2022/04/06 17:09:12;;;;;;;3.37;2.90;;;13.70;91.20;;;;;;4901472;29;20499;-85
2022/04/06 17:15:19;;;;;;;3.63;3.30;;;13.60;91.70;;;;;;4898521;29;20553;-82
2022/04/06 17:18:19;;;;;;;3.07;2.77;;;13.70;91.10;;;;;;4898375;29;20568;-83
2022/04/06 17:21:03;;;;;;;4.27;2.70;;;13.70;91.10;;;;;;4890235;29;20501;-85
2022/04/06 17:24:30;;;;;;;3.00;2.70;;;13.80;91.00;;;;;;4855688;29;20470;-85
2022/04/06 17:27:32;;;;;;;4.43;2.67;;;13.80;90.80;;;;;;4966895;23;20491;-84
2022/04/06 17:30:33;;;;;;;;;;;;;;;;;;;;;
2022/04/06 17:33:51;;;;;;;2.97;2.67;;;13.70;90.90;;;;;;4965030;28;20578;-84
2022/04/06 17:37:00;;;;;;;3.90;3.00;;;13.70;90.80;;;;;;4922366;28;20484;-84
2022/04/06 17:40:16;;;;;;;2.83;2.63;;;13.50;91.00;;;;;;4960147;28;20455;-83
2022/04/06 17:43:05;;;;;;;;;;;;;;;;;;;;;
2022/04/06 17:46:00;;;;;;;7.40;5.13;;;13.70;90.60;;;;;;4969771;28;20574;-84
2022/04/06 17:52:22;;;;;;;3.90;2.80;;;13.70;90.50;;;;;;4861012;29;20460;-84
2022/04/06 17:55:19;;;;;;;5.10;3.40;;;13.70;90.30;;;;;;4847648;29;20461;-83
2022/04/06 17:58:50;;;;;;;4.77;3.03;;;13.50;90.50;;;;;;4795377;29;20509;-83
2022/04/06 18:01:47;;;;;;;3.97;2.80;;;13.80;90.60;;;;;;4856183;29;20529;-82
2022/04/06 18:05:27;;;;;;;2.90;2.70;;;13.80;90.40;;;;;;4898245;29;20455;-81
2022/04/06 18:08:21;;;;;;;3.60;3.30;;;13.60;90.90;;;;;;4866024;29;20498;-84
2022/04/06 18:14:21;;;;;;;7.40;6.57;;;13.70;90.60;;;;;;4903411;29;20472;-83
2022/04/06 18:17:05;;;;;;;4.20;3.20;;;13.60;90.80;;;;;;4883889;29;20475;-84
2022/04/06 18:19:59;;;;;;;6.60;3.47;;;13.50;91.30;;;;;;4899038;29;20851;-82
2022/04/06 18:26:55;;;;;;;5.57;3.50;;;13.70;90.80;;;;;;4833272;29;21295;-85
2022/04/06 18:29:43;;;;;;;7.53;3.63;;;13.70;90.70;;;;;;4869882;29;20494;-83
2022/04/06 18:32:35;;;;;;;4.93;4.00;;;13.60;90.90;;;;;;4883877;29;20482;-84
2022/04/06 18:39:40;;;;;;;5.37;3.67;;;13.50;91.30;;;;;;4866440;29;20462;-82
2022/04/06 18:42:35;;;;;;;9.80;3.90;;;13.60;91.40;;;;;;4871377;29;20506;-84
2022/04/06 18:45:36;;;;;;;7.17;3.83;;;13.60;91.50;;;;;;4870872;29;20460;-84
2022/04/06 18:48:42;;;;;;;4.60;3.67;;;13.50;91.70;;;;;;4885759;29;20482;-84
2022/04/06 18:51:54;;;;;;;7.53;4.70;;;13.50;92.00;;;;;;5187891;23;20482;-81
2022/04/06 19:03:50;;;;;;;5.20;3.83;;;13.30;92.80;;;;;;4956751;23;20567;-85
2022/04/06 19:07:34;;;;;;;4.33;3.93;;;13.40;92.90;;;;;;4977724;23;20557;-85
2022/04/06 19:14:20;;;;;;;4.90;4.40;;;13.50;93.10;;;;;;5008250;28;20463;-87
2022/04/06 19:20:08;;;;;;;6.03;4.60;;;13.50;93.20;;;;;;5507032;23;20486;-84
2022/04/06 19:29:38;;;;;;;6.07;5.10;;;13.50;95.50;;;;;;5100405;23;20497;-84
2022/04/06 19:32:44;;;;;;;4.37;3.97;;;13.40;96.10;;;;;;4980741;28;20511;-85
2022/04/06 19:50:18;;;;;;;8.07;4.77;;;13.30;97.00;;;;;;4959767;28;20578;-86
2022/04/06 19:53:03;;;;;;;7.37;5.07;;;13.20;96.90;;;;;;4945446;29;20485;-85
2022/04/06 19:55:46;;;;;;;7.17;4.50;;;13.10;97.60;;;;;;4950959;29;20460;-85
2022/04/06 19:58:53;;;;;;;7.30;4.60;;;13.20;97.50;;;;;;4935659;29;20457;-86
2022/04/06 20:02:15;;;;;;;6.30;4.03;;;13.40;96.80;;;;;;4938311;29;20485;-87
2022/04/06 20:05:11;;;;;;;5.30;4.07;;;13.30;96.70;;;;;;4933608;29;20474;-86
2022/04/06 20:07:45;;;;;;;5.30;4.00;;;13.20;96.70;;;;;;4929485;29;20472;-85
2022/04/06 20:10:17;;;;;;;7.87;4.27;;;13.30;96.80;;;;;;4923030;29;20574;-84
2022/04/06 20:12:44;;;;;;;6.63;4.30;;;13.30;96.90;;;;;;4921377;29;20472;-86
2022/04/06 20:15:18;;;;;;;6.10;4.60;;;13.30;96.80;;;;;;4926446;29;20526;-85
2022/04/06 20:17:51;;;;;;;5.40;3.93;;;13.30;96.70;;;;;;4943660;29;20485;-85
2022/04/06 20:20:30;;;;;;;8.70;4.60;;;13.40;96.50;;;;;;4944162;29;20529;-85
2022/04/06 20:22:57;;;;;;;8.03;5.07;;;13.30;96.60;;;;;;4942917;29;20449;-85
2022/04/06 20:25:23;;;;;;;6.60;5.30;;;13.00;97.20;;;;;;4929190;29;20466;-85
2022/04/06 20:27:51;;;;;;;6.20;4.33;;;13.00;97.70;;;;;;4928728;29;20466;-86
2022/04/06 20:30:31;;;;;;;6.40;4.13;;;13.20;96.80;;;;;;4931126;29;20572;-83
2022/04/06 20:33:00;;;;;;;4.63;3.87;;;13.10;97.00;;;;;;4927036;29;20980;-85
2022/04/06 20:35:32;;;;;;;4.33;3.83;;;13.10;97.20;;;;;;4932160;29;20470;-86
2022/04/06 20:38:04;;;;;;;5.17;4.73;;;13.00;97.30;;;;;;4928219;29;20518;-85
2022/04/06 20:40:51;;;;;;;5.33;3.93;;;13.20;96.70;;;;;;4927650;28;20460;-86
2022/04/06 20:43:30;;;;;;;4.30;3.90;;;13.10;96.40;;;;;;4937729;29;20550;-88
2022/04/06 20:51:31;;;;;;;4.90;4.07;;;13.10;96.60;;;;;;4985831;28;20539;-84
2022/04/06 20:54:07;;;;;;;5.67;4.20;;;13.10;96.60;;;;;;4974950;28;20594;-86
2022/04/06 20:56:47;;;;;;;5.17;4.23;;;13.10;96.80;;;;;;4987062;28;20474;-85
2022/04/06 20:59:14;;;;;;;7.20;3.80;;;13.00;96.90;;;;;;4983338;28;20477;-87
2022/04/06 21:01:41;;;;;;;4.20;3.50;;;13.00;96.60;;;;;;4983051;28;20486;-84
2022/04/06 21:04:26;;;;;;;4.30;3.83;;;12.90;97.00;;;;;;4991749;28;20470;-85
2022/04/06 21:07:04;;;;;;;5.10;3.90;;;12.70;97.60;;;;;;4972582;28;20486;-87
2022/04/06 21:09:49;;;;;;;4.17;3.87;;;13.00;97.00;;;;;;4974181;28;20612;-84
2022/04/06 21:12:38;;;;;;;4.63;3.57;;;12.70;97.40;;;;;;4977566;28;20493;-83
2022/04/06 21:15:22;;;;;;;4.07;3.33;;;12.60;98.80;;;;;;4978000;28;20450;-83
2022/04/06 21:17:49;;;;;;;4.00;3.00;;;12.60;99.10;;;;;;4972741;28;20475;-85
2022/04/06 21:20:18;;;;;;;4.60;3.07;;;12.50;99.50;;;;;;4988604;28;20542;-84
2022/04/06 21:22:51;;;;;;;4.70;2.90;;;12.50;99.90;;;;;;4970914;28;20494;-82
2022/04/06 21:25:19;;;;;;;3.87;2.90;;;12.50;99.90;;;;;;4972334;28;20546;-85
2022/04/06 21:27:45;;;;;;;4.07;3.20;;;12.40;99.90;;;;;;4987354;28;20482;-87
2022/04/06 21:30:21;;;;;;;6.03;2.80;;;12.30;99.90;;;;;;4970645;28;20622;-85
2022/04/06 21:33:01;;;;;;;3.17;2.87;;;12.50;99.90;;;;;;4984966;28;22216;-85
2022/04/06 21:35:37;;;;;;;3.13;2.83;;;12.50;99.90;;;;;;4986872;28;20494;-84
2022/04/06 21:38:05;;;;;;;6.00;3.93;;;12.70;99.90;;;;;;4976208;28;20484;-85
2022/04/06 21:43:43;;;;;;;9.27;4.00;;;13.00;98.70;;;;;;4912670;29;20526;-87
2022/04/06 21:46:09;;;;;;;5.20;3.80;;;12.90;98.60;;;;;;4987138;28;20451;-85
2022/04/06 21:48:37;;;;;;;3.90;3.60;;;12.90;98.60;;;;;;4983447;28;20902;-87
2022/04/06 21:51:13;;;;;;;3.90;3.53;;;12.80;98.90;;;;;;4992248;28;20471;-87
2022/04/06 21:53:56;;;;;;;4.00;3.60;;;12.80;98.90;;;;;;4977025;28;20471;-86
2022/04/06 22:00:29;;;;;;;4.30;3.17;;;12.80;98.60;;;;;;4978334;28;20438;-85
2022/04/06 22:03:54;;;;;;;3.60;3.30;;;12.70;98.60;;;;;;4968962;28;20482;-83
2022/04/06 22:06:37;;;;;;;4.33;3.57;;;12.60;99.00;;;;;;5078366;23;20473;-84
2022/04/06 22:09:21;;;;;;;4.00;3.60;;;12.60;99.00;;;;;;4966305;28;20502;-84
2022/04/06 22:11:52;;;;;;;4.27;2.80;;;12.60;98.70;;;;;;4966894;28;20475;-87
2022/04/06 22:14:53;;;;;;;2.80;2.60;;;12.60;98.70;;;;;;4986368;28;21120;-86
2022/04/06 22:18:01;;;;;;;;;;;;;;;;;;;;;
2022/04/06 22:21:13;;;;;;;2.83;2.60;;;12.60;99.00;;;;;;4968046;28;20452;-86
2022/04/06 22:24:03;;;;;;;4.50;3.60;;;12.50;99.10;;;;;;4966905;28;20483;-85
2022/04/06 22:26:37;;;;;;;3.40;3.10;;;12.50;99.00;;;;;;4963182;28;20519;-85
2022/04/06 22:29:14;;;;;;;2.60;2.40;;;12.60;99.00;;;;;;4957486;28;20507;-86
2022/04/06 22:31:46;;;;;;;6.60;3.07;;;12.50;99.00;;;;;;4961344;28;20452;-84
2022/04/06 22:34:15;;;;;;;2.70;2.50;;;12.70;99.00;;;;;;4973531;28;20451;-87
2022/04/06 22:40:34;;;;;;;3.97;2.87;;;12.70;98.80;;;;;;4962043;28;20454;-86
2022/04/06 22:50:53;;;;;;;3.73;2.30;;;12.50;98.90;;;;;;4867001;29;21645;-84
2022/04/06 22:53:20;;;;;;;3.23;2.23;;;12.20;99.90;;;;;;4875478;29;20468;-83
2022/04/06 22:55:47;;;;;;;4.87;2.50;;;12.60;99.40;;;;;;4858238;29;20463;-84
2022/04/06 22:58:14;;;;;;;3.00;2.77;;;12.70;99.00;;;;;;4866973;29;20499;-82
2022/04/06 23:00:40;;;;;;;3.20;2.73;;;12.70;99.40;;;;;;4873946;29;20468;-83
2022/04/06 23:03:08;;;;;;;6.13;2.80;;;12.60;99.80;;;;;;4856045;29;20480;-86
2022/04/06 23:05:36;;;;;;;5.87;2.90;;;12.70;99.90;;;;;;4851305;29;20543;-83
2022/04/06 23:08:03;;;;;;;3.20;2.60;;;12.50;99.90;;;;;;4870372;29;20495;-83
2022/04/06 23:10:30;;;;;;;5.60;3.20;;;12.50;99.90;;;;;;4869182;29;20495;-83
2022/04/06 23:12:57;;;;;;;3.10;2.80;;;12.50;99.90;;;;;;4871322;29;20464;-84
2022/04/06 23:15:24;;;;;;;3.80;2.80;;;12.60;99.90;;;;;;4867807;29;20468;-84
2022/04/06 23:17:51;;;;;;;3.03;2.70;;;12.60;99.90;;;;;;4877495;29;20477;-83
2022/04/06 23:20:17;;;;;;;4.13;3.20;;;12.60;99.90;;;;;;4876020;29;20471;-83
2022/04/06 23:22:44;;;;;;;4.87;4.33;;;12.50;99.90;;;;;;4891757;29;20467;-84
2022/04/06 23:25:11;;;;;;;2.97;2.67;;;12.70;99.90;;;;;;4893054;29;20455;-82
2022/04/06 23:27:37;;;;;;;3.87;3.10;;;12.70;99.50;;;;;;4908766;29;20489;-84
2022/04/06 23:30:05;;;;;;;3.10;2.80;;;12.60;99.30;;;;;;4935132;29;20489;-85
2022/04/06 23:32:31;;;;;;;2.57;2.37;;;12.60;99.20;;;;;;4939370;29;20457;-82
2022/04/06 23:34:58;;;;;;;5.17;2.73;;;12.70;99.40;;;;;;4935478;29;20453;-83
2022/04/06 23:37:25;;;;;;;3.20;2.33;;;12.70;99.30;;;;;;4917719;29;20481;-84
2022/04/06 23:39:52;;;;;;;5.10;2.07;;;12.70;99.00;;;;;;4929982;29;20480;-84
2022/04/06 23:42:19;;;;;;;3.60;2.43;;;12.70;99.10;;;;;;4916798;29;20480;-85
2022/04/06 23:44:47;;;;;;;3.30;2.50;;;12.70;99.10;;;;;;4934391;29;20462;-83
2022/04/06 23:47:14;;;;;;;2.13;2.03;;;12.70;99.30;;;;;;4918574;29;20488;-82
2022/04/06 23:49:41;;;;;;;3.27;2.63;;;12.70;98.90;;;;;;4928662;29;20488;-85
2022/04/06 23:52:08;;;;;;;3.13;2.30;;;12.80;98.90;;;;;;4915041;29;20450;-82
2022/04/06 23:54:35;;;;;;;3.47;2.03;;;12.80;98.60;;;;;;4913895;29;20474;-83
2022/04/06 23:57:05;;;;;;;2.67;2.27;;;12.70;98.40;;;;;;4915755;29;20607;-83
2022/04/06 23:59:38;;;;;;;2.83;2.63;;;12.60;98.70;;;;;;4930701;29;20493;-84
